This is the latest recevied weather packets stored in our database for station/object DL9TPA-1. If no packets are shown the sender has not sent any weather packets the latest 10 day(s).
| Time | Temp. | Humidity | Pressure | Rain* | Wind** | Luminosity | Snow |
|---|---|---|---|---|---|---|---|
| 1777880281 | 19.44° C | 58% | 1013.2 hPa | 0 mm | - | - | - |
| 1777879681 | 18.89° C | 60% | 1013.1 hPa | 0 mm | - | - | - |
| 1777879076 | 17.78° C | 61% | 1013 hPa | 0 mm | - | - | - |
| 1777878476 | 17.78° C | 61% | 1013.1 hPa | 0 mm | - | - | - |
| 1777877874 | 17.78° C | 61% | 1013.1 hPa | 0 mm | - | - | - |
| 1777877270 | 17.78° C | 61% | 1013.1 hPa | 0 mm | - | - | - |
| 1777876668 | 17.22° C | 63% | 1013 hPa | 0 mm | - | - | - |
| 1777876067 | 16.67° C | 64% | 1012.9 hPa | 0 mm | - | - | - |
| 1777875464 | 16.67° C | 63% | 1012.9 hPa | 0 mm | - | - | - |
| 1777874863 | 16.67° C | 62% | 1012.9 hPa | 0 mm | - | - | - |
| 1777874260 | 16.67° C | 63% | 1012.9 hPa | 0 mm | - | - | - |
| 1777873659 | 16.67° C | 63% | 1012.9 hPa | 0 mm | - | - | - |
| 1777873056 | 16.67° C | 64% | 1012.9 hPa | 0 mm | - | - | - |
| 1777872454 | 15.56° C | 67% | 1013 hPa | 0 mm | - | - | - |
| 1777871853 | 15° C | 69% | 1012.9 hPa | 0 mm | - | - | - |
| 1777871251 | 14.44° C | 71% | 1012.9 hPa | 0 mm | - | - | - |
| 1777870651 | 13.89° C | 73% | 1012.7 hPa | 0 mm | - | - | - |
| 1777870048 | 13.33° C | 74% | 1012.8 hPa | 0 mm | - | - | - |
| 1777869446 | 13.33° C | 74% | 1012.7 hPa | 0 mm | - | - | - |
| 1777868842 | 13.33° C | 74% | 1012.7 hPa | 0 mm | - | - | - |
| 1777868241 | 13.33° C | 72% | 1012.6 hPa | 0 mm | - | - | - |
| 1777867639 | 13.33° C | 73% | 1012.5 hPa | 0 mm | - | - | - |
| 1777867038 | 13.89° C | 72% | 1012.8 hPa | 0 mm | - | - | - |
| 1777866435 | 13.89° C | 71% | 1012.7 hPa | 0 mm | - | - | - |
| 1777865832 | 13.89° C | 71% | 1012.6 hPa | 0 mm | - | - | - |
* Rain latest hour (hover to see other rain measurements)
** Current wind speed in m/s (hover to see current wind gust speed)